createdAt,value
2023-01-07T00:00:49.958Z,20.08
2023-01-07T00:03:16.681Z,20.07
2023-01-07T00:05:43.655Z,20.07
2023-01-07T00:08:10.385Z,20.04
2023-01-07T00:10:36.860Z,20.02
2023-01-07T00:13:03.321Z,20.00
2023-01-07T00:15:29.725Z,19.98
2023-01-07T00:17:56.134Z,19.97
2023-01-07T00:20:22.590Z,19.94
2023-01-07T00:22:50.143Z,19.94
2023-01-07T00:25:16.688Z,19.92
2023-01-07T00:27:43.075Z,19.90
2023-01-07T00:30:12.189Z,19.89
2023-01-07T00:32:59.357Z,19.88
2023-01-07T00:35:26.008Z,19.85
2023-01-07T00:37:53.303Z,19.83
2023-01-07T00:40:19.982Z,19.82
2023-01-07T00:42:55.486Z,19.82
2023-01-07T00:45:22.440Z,19.81
2023-01-07T00:47:48.955Z,19.79
2023-01-07T00:50:15.396Z,19.78
2023-01-07T00:55:26.942Z,19.75
2023-01-07T00:57:53.618Z,19.74
2023-01-07T01:00:20.532Z,19.75
2023-01-07T01:02:47.222Z,19.74
2023-01-07T01:05:13.863Z,19.71
2023-01-07T01:07:40.491Z,19.71
2023-01-07T01:10:10.155Z,19.70
2023-01-07T01:12:36.709Z,19.67
2023-01-07T01:15:03.967Z,19.68
2023-01-07T01:17:32.687Z,19.67
2023-01-07T01:19:59.099Z,19.66
2023-01-07T01:22:25.552Z,19.64
2023-01-07T01:24:51.972Z,19.64
2023-01-07T01:27:18.608Z,19.61
2023-01-07T01:29:45.008Z,19.61
2023-01-07T01:32:11.489Z,19.60
2023-01-07T01:34:37.934Z,19.59
2023-01-07T01:37:04.331Z,19.58
2023-01-07T01:39:30.836Z,19.58
2023-01-07T01:41:57.421Z,19.57
2023-01-07T01:44:30.190Z,19.56
2023-01-07T01:46:56.764Z,19.55
2023-01-07T01:49:30.847Z,19.55
2023-01-07T01:51:58.939Z,19.55
2023-01-07T01:54:25.481Z,19.52
2023-01-07T01:56:52.027Z,19.52
2023-01-07T01:59:19.251Z,19.51
2023-01-07T02:01:46.015Z,19.50
2023-01-07T02:04:13.165Z,19.48
2023-01-07T02:06:41.966Z,19.46
2023-01-07T02:09:08.439Z,19.44
2023-01-07T02:11:44.083Z,19.47
2023-01-07T02:14:19.704Z,19.45
2023-01-07T02:16:46.231Z,19.42
2023-01-07T02:19:31.920Z,19.41
2023-01-07T02:22:02.164Z,19.41
2023-01-07T02:24:38.459Z,19.40
2023-01-07T02:27:23.746Z,19.38
2023-01-07T02:29:54.515Z,19.36
2023-01-07T02:32:26.925Z,19.37
2023-01-07T02:34:57.438Z,19.35
2023-01-07T02:37:34.585Z,19.34
2023-01-07T02:40:04.299Z,19.32
2023-01-07T02:42:36.955Z,19.31
2023-01-07T02:45:18.640Z,19.30
2023-01-07T02:47:52.775Z,19.29
2023-01-07T02:50:19.615Z,19.28
2023-01-07T02:52:46.167Z,19.27
2023-01-07T02:55:16.777Z,19.26
2023-01-07T02:58:01.783Z,19.25
2023-01-07T03:00:28.149Z,19.23
2023-01-07T03:03:13.490Z,19.18
2023-01-07T03:05:45.178Z,19.19
2023-01-07T03:08:30.536Z,19.18
2023-01-07T03:10:56.964Z,19.16
2023-01-07T03:13:24.004Z,19.15
2023-01-07T03:15:55.555Z,19.13
2023-01-07T03:18:31.342Z,19.12
2023-01-07T03:20:58.518Z,19.12
2023-01-07T03:23:25.818Z,19.11
2023-01-07T03:25:52.394Z,19.10
2023-01-07T03:28:19.451Z,19.10
2023-01-07T03:30:45.861Z,19.08
2023-01-07T03:33:14.441Z,19.04
2023-01-07T03:35:41.381Z,19.05
2023-01-07T03:38:07.819Z,19.05
2023-01-07T03:40:34.283Z,19.05
2023-01-07T03:43:00.715Z,19.03
2023-01-07T03:45:27.514Z,19.04
2023-01-07T03:47:54.469Z,19.02
2023-01-07T03:50:21.020Z,19.01
2023-01-07T03:52:48.705Z,18.99
2023-01-07T03:55:15.228Z,19.00
2023-01-07T03:57:41.724Z,18.99
2023-01-07T04:00:09.044Z,19.00
2023-01-07T04:02:35.547Z,19.29
2023-01-07T04:05:01.978Z,19.66
2023-01-07T04:07:28.408Z,20.00
2023-01-07T04:09:54.942Z,20.61
2023-01-07T04:12:21.539Z,21.73
2023-01-07T04:14:48.018Z,23.14
2023-01-07T04:17:14.448Z,24.57
2023-01-07T04:19:40.860Z,25.86
2023-01-07T04:22:07.561Z,26.87
2023-01-07T04:24:34.146Z,27.65
2023-01-07T04:27:02.695Z,28.02
2023-01-07T04:29:29.259Z,28.18
2023-01-07T04:31:55.709Z,28.37
2023-01-07T04:34:22.108Z,28.53
2023-01-07T04:36:48.585Z,28.64
2023-01-07T04:39:15.445Z,28.76
2023-01-07T04:41:42.044Z,28.88
2023-01-07T04:44:08.494Z,28.96
2023-01-07T04:46:35.005Z,29.06
2023-01-07T04:49:01.469Z,29.12
2023-01-07T04:51:27.894Z,29.17
2023-01-07T04:53:54.423Z,29.23
2023-01-07T04:56:20.959Z,29.27
2023-01-07T04:58:47.827Z,29.32
2023-01-07T05:01:14.486Z,29.36
2023-01-07T05:03:40.995Z,29.39
2023-01-07T05:06:09.480Z,29.43
2023-01-07T05:08:35.951Z,29.46
2023-01-07T05:11:03.952Z,29.50
2023-01-07T05:13:31.863Z,29.53
2023-01-07T05:15:58.578Z,29.55
2023-01-07T05:18:25.011Z,29.58
2023-01-07T05:20:51.555Z,29.59
2023-01-07T05:23:17.974Z,29.62
2023-01-07T05:25:44.447Z,29.65
2023-01-07T05:28:12.069Z,29.68
2023-01-07T05:30:39.536Z,29.70
2023-01-07T05:33:07.340Z,29.71
2023-01-07T05:35:34.307Z,29.72
2023-01-07T05:38:00.744Z,29.74
2023-01-07T05:40:27.197Z,29.73
2023-01-07T05:42:53.753Z,29.73
2023-01-07T05:45:21.908Z,29.74
2023-01-07T05:47:48.656Z,29.73
2023-01-07T05:50:15.289Z,29.75
2023-01-07T05:52:41.712Z,29.76
2023-01-07T05:55:08.728Z,29.77
2023-01-07T05:57:35.150Z,29.76
2023-01-07T06:00:01.643Z,29.75
2023-01-07T06:02:28.042Z,29.77
2023-01-07T06:04:54.516Z,29.78
2023-01-07T06:07:21.041Z,29.79
2023-01-07T06:09:50.516Z,29.79
2023-01-07T06:12:16.961Z,29.81
2023-01-07T06:14:43.420Z,29.81
2023-01-07T06:17:09.806Z,29.82
2023-01-07T06:19:36.301Z,29.83
2023-01-07T06:22:02.839Z,29.85
2023-01-07T06:24:29.372Z,29.87
2023-01-07T06:26:58.546Z,29.88
2023-01-07T06:29:24.988Z,29.89
2023-01-07T06:31:51.403Z,29.94
2023-01-07T06:34:17.819Z,29.95
2023-01-07T06:36:44.285Z,29.97
2023-01-07T06:39:11.336Z,29.97
2023-01-07T06:41:37.749Z,29.98
2023-01-07T06:44:04.198Z,30.02
2023-01-07T06:46:30.782Z,30.03
2023-01-07T06:48:59.866Z,30.04
2023-01-07T06:51:26.317Z,30.05
2023-01-07T06:53:52.773Z,30.08
2023-01-07T06:56:19.183Z,30.10
2023-01-07T06:58:45.743Z,30.13
2023-01-07T07:01:12.228Z,30.13
2023-01-07T07:03:38.901Z,30.15
2023-01-07T07:06:05.533Z,30.17
2023-01-07T07:08:31.994Z,30.19
2023-01-07T07:10:58.432Z,30.17
2023-01-07T07:13:24.841Z,30.19
2023-01-07T07:15:51.323Z,30.20
2023-01-07T07:18:17.909Z,30.19
2023-01-07T07:20:45.820Z,30.19
2023-01-07T07:23:12.314Z,30.20
2023-01-07T07:25:38.734Z,30.22
2023-01-07T07:28:05.227Z,30.23
2023-01-07T07:30:45.561Z,30.21
2023-01-07T07:33:15.241Z,30.21
2023-01-07T07:35:41.896Z,30.20
2023-01-07T07:38:08.289Z,30.22
2023-01-07T07:40:34.732Z,30.23
2023-01-07T07:43:10.694Z,30.23
2023-01-07T07:45:39.592Z,30.23
2023-01-07T07:48:07.330Z,30.22
2023-01-07T07:50:33.914Z,30.23
2023-01-07T07:53:00.329Z,30.24
2023-01-07T07:55:26.838Z,30.25
2023-01-07T07:57:56.503Z,30.27
2023-01-07T08:00:22.999Z,30.28
2023-01-07T08:02:49.442Z,30.29
2023-01-07T08:05:16.136Z,30.30
2023-01-07T08:07:45.410Z,30.32
2023-01-07T08:10:11.849Z,30.34
2023-01-07T08:12:38.705Z,30.36
2023-01-07T08:15:05.994Z,30.37
2023-01-07T08:17:32.577Z,30.37
2023-01-07T08:19:59.103Z,30.38
2023-01-07T08:22:25.532Z,30.39
2023-01-07T08:24:51.928Z,30.40
2023-01-07T08:27:18.354Z,30.40
2023-01-07T08:29:45.062Z,30.40
2023-01-07T08:32:11.588Z,30.41
2023-01-07T08:34:37.991Z,30.42
2023-01-07T08:37:04.647Z,30.42
2023-01-07T08:39:31.036Z,30.43
2023-01-07T08:41:57.600Z,30.41
2023-01-07T08:44:23.988Z,30.40
2023-01-07T08:46:50.617Z,30.40
2023-01-07T08:49:19.326Z,30.38
2023-01-07T08:51:48.086Z,30.38
2023-01-07T08:54:15.537Z,30.38
2023-01-07T08:56:42.017Z,30.38
2023-01-07T08:59:08.422Z,30.39
2023-01-07T09:01:35.344Z,30.30
2023-01-07T09:04:01.800Z,30.01
2023-01-07T09:06:28.214Z,29.72
2023-01-07T09:08:54.621Z,29.36
2023-01-07T09:11:21.079Z,28.78
2023-01-07T09:13:47.467Z,28.24
2023-01-07T09:16:14.121Z,27.78
2023-01-07T09:18:40.596Z,27.27
2023-01-07T09:21:07.292Z,26.95
2023-01-07T09:23:33.830Z,26.72
2023-01-07T09:26:00.313Z,26.62
2023-01-07T09:28:26.799Z,26.50
2023-01-07T09:30:54.850Z,26.47
2023-01-07T09:33:22.983Z,26.44
2023-01-07T09:35:49.404Z,26.53
2023-01-07T09:38:15.861Z,26.68
2023-01-07T09:40:42.852Z,27.23
2023-01-07T09:43:12.114Z,27.38
2023-01-07T09:45:45.914Z,27.49
2023-01-07T09:48:19.034Z,27.59
2023-01-07T09:50:48.226Z,27.75
2023-01-07T09:53:34.881Z,27.77
2023-01-07T09:56:11.614Z,27.97
2023-01-07T09:58:40.271Z,28.35
2023-01-07T10:01:06.778Z,28.37
2023-01-07T10:03:33.236Z,28.19
2023-01-07T10:06:29.316Z,28.30
2023-01-07T10:09:13.529Z,28.33
2023-01-07T10:11:44.218Z,28.50
2023-01-07T10:14:10.650Z,28.66
2023-01-07T10:16:52.334Z,28.99
2023-01-07T10:19:27.316Z,29.16
2023-01-07T10:21:55.322Z,29.32
2023-01-07T10:24:41.985Z,29.38
2023-01-07T10:27:10.254Z,29.43
2023-01-07T10:29:40.982Z,29.45
2023-01-07T10:32:14.014Z,29.45
2023-01-07T10:34:43.986Z,29.42
2023-01-07T10:37:16.765Z,29.41
2023-01-07T10:39:43.127Z,29.37
2023-01-07T10:42:15.894Z,29.36
2023-01-07T10:44:52.887Z,29.33
2023-01-07T10:47:19.263Z,29.28
2023-01-07T10:49:54.815Z,29.24
2023-01-07T10:52:33.487Z,29.16
2023-01-07T10:55:05.511Z,29.03
2023-01-07T10:57:32.043Z,28.82
2023-01-07T10:59:59.497Z,28.64
2023-01-07T11:02:27.556Z,28.45
2023-01-07T11:04:55.031Z,28.27
2023-01-07T11:07:43.831Z,28.12
2023-01-07T11:10:17.157Z,27.97
2023-01-07T11:12:47.465Z,27.83
2023-01-07T11:15:19.953Z,27.75
2023-01-07T11:17:50.860Z,27.66
2023-01-07T11:20:37.558Z,27.56
2023-01-07T11:23:17.172Z,27.50
2023-01-07T11:25:45.675Z,27.45
2023-01-07T11:28:18.575Z,27.43
2023-01-07T11:30:44.987Z,27.38
2023-01-07T11:33:22.190Z,27.34
2023-01-07T11:35:52.426Z,27.30
2023-01-07T11:38:32.160Z,27.24
2023-01-07T11:40:59.941Z,27.17
2023-01-07T11:43:39.471Z,27.10
2023-01-07T11:46:19.498Z,27.08
2023-01-07T11:48:49.905Z,27.08
2023-01-07T11:51:16.293Z,27.00
2023-01-07T11:53:48.875Z,26.92
2023-01-07T11:56:21.312Z,26.85
2023-01-07T11:58:51.617Z,26.75
2023-01-07T12:01:18.998Z,26.67
2023-01-07T12:03:51.569Z,26.53
2023-01-07T12:06:23.253Z,26.42
2023-01-07T12:08:50.872Z,26.28
2023-01-07T12:11:17.349Z,26.09
2023-01-07T12:13:48.080Z,25.90
2023-01-07T12:16:14.530Z,25.77
2023-01-07T12:18:58.487Z,25.65
2023-01-07T12:21:34.961Z,25.53
2023-01-07T12:24:10.662Z,25.42
2023-01-07T12:26:40.162Z,25.32
2023-01-07T12:29:06.593Z,25.23
2023-01-07T12:31:52.326Z,25.17
2023-01-07T12:34:21.696Z,25.11
2023-01-07T12:36:49.934Z,25.01
2023-01-07T12:39:18.421Z,24.93
2023-01-07T12:41:45.288Z,24.89
2023-01-07T12:44:18.862Z,24.82
2023-01-07T12:46:51.852Z,24.75
2023-01-07T12:49:21.157Z,24.68
2023-01-07T12:51:52.093Z,24.62
2023-01-07T12:54:18.545Z,24.54
2023-01-07T12:56:55.617Z,24.45
2023-01-07T12:59:46.850Z,24.36
2023-01-07T13:02:25.236Z,24.25
2023-01-07T13:05:04.775Z,24.14
2023-01-07T13:07:37.417Z,24.06
2023-01-07T13:10:07.212Z,23.97
2023-01-07T13:12:43.542Z,23.89
2023-01-07T13:15:10.102Z,23.83
2023-01-07T13:17:36.520Z,23.73
2023-01-07T13:20:04.861Z,23.65
2023-01-07T13:22:36.060Z,23.56
2023-01-07T13:25:14.696Z,23.47
2023-01-07T13:27:53.499Z,23.38
2023-01-07T13:30:39.096Z,23.27
2023-01-07T13:33:09.767Z,23.17
2023-01-07T13:35:52.198Z,23.08
2023-01-07T13:38:48.009Z,22.98
2023-01-07T13:41:34.161Z,22.86
2023-01-07T13:44:12.840Z,22.74
2023-01-07T13:46:40.791Z,22.64
2023-01-07T13:49:16.701Z,22.58
2023-01-07T13:51:43.101Z,22.49
2023-01-07T13:54:12.336Z,22.46
2023-01-07T13:56:38.957Z,22.38
2023-01-07T13:59:23.635Z,22.33
2023-01-07T14:02:09.032Z,22.27
2023-01-07T14:04:36.859Z,22.20
2023-01-07T14:07:03.352Z,22.14
2023-01-07T14:09:33.442Z,22.10
2023-01-07T14:12:18.549Z,22.06
2023-01-07T14:14:58.048Z,21.98
2023-01-07T14:17:24.434Z,21.92
2023-01-07T14:19:58.674Z,21.88
2023-01-07T14:22:37.124Z,21.83
2023-01-07T14:25:12.854Z,21.78
2023-01-07T14:27:51.683Z,21.75
2023-01-07T14:30:28.875Z,21.68
2023-01-07T14:32:56.252Z,21.62
2023-01-07T14:35:24.254Z,21.58
2023-01-07T14:37:50.675Z,21.54
2023-01-07T14:40:26.248Z,21.51
2023-01-07T14:43:02.600Z,21.48
2023-01-07T14:45:49.267Z,21.43
2023-01-07T14:48:15.609Z,21.38
2023-01-07T14:50:56.963Z,21.33
2023-01-07T14:53:23.369Z,21.29
2023-01-07T14:55:51.138Z,21.26
2023-01-07T14:58:23.813Z,21.21
2023-01-07T15:01:23.147Z,21.18
2023-01-07T15:03:52.875Z,21.15
2023-01-07T15:06:28.457Z,21.10
2023-01-07T15:09:16.564Z,21.07
2023-01-07T15:12:04.947Z,21.03
2023-01-07T15:14:50.260Z,21.00
2023-01-07T15:17:17.073Z,20.96
2023-01-07T15:19:43.628Z,20.92
2023-01-07T15:22:17.185Z,20.90
2023-01-07T15:24:46.426Z,20.86
2023-01-07T15:27:33.693Z,20.83
2023-01-07T15:30:00.721Z,20.81
2023-01-07T15:32:32.662Z,20.77
2023-01-07T15:34:59.085Z,20.73
2023-01-07T15:37:25.526Z,20.70
2023-01-07T15:39:55.862Z,20.68
2023-01-07T15:42:22.955Z,20.64
2023-01-07T15:44:50.709Z,20.62
2023-01-07T15:47:30.770Z,20.60
2023-01-07T15:49:57.214Z,20.58
2023-01-07T15:52:25.423Z,20.54
2023-01-07T15:54:51.816Z,20.52
2023-01-07T15:57:28.624Z,20.48
2023-01-07T15:59:55.094Z,20.46
2023-01-07T16:02:25.180Z,20.44
2023-01-07T16:04:52.450Z,20.42
2023-01-07T16:07:23.396Z,20.39
2023-01-07T16:09:50.093Z,20.37
2023-01-07T16:12:20.475Z,20.36
2023-01-07T16:14:46.867Z,20.32
2023-01-07T16:17:14.361Z,20.30
2023-01-07T16:19:40.835Z,20.29
2023-01-07T16:22:07.328Z,20.27
2023-01-07T16:24:33.939Z,20.25
2023-01-07T16:27:04.807Z,20.22
2023-01-07T16:29:32.991Z,20.20
2023-01-07T16:31:59.408Z,20.19
2023-01-07T16:34:25.897Z,20.17
2023-01-07T16:36:55.815Z,20.15
2023-01-07T16:39:25.993Z,20.13
2023-01-07T16:42:12.419Z,20.11
2023-01-07T16:44:45.067Z,20.08
2023-01-07T16:47:15.536Z,20.05
2023-01-07T16:49:41.948Z,20.04
2023-01-07T16:52:15.199Z,20.02
2023-01-07T16:54:43.441Z,20.01
2023-01-07T16:57:12.938Z,19.99
2023-01-07T16:59:42.975Z,19.99
2023-01-07T17:02:12.605Z,19.94
2023-01-07T17:04:39.029Z,19.93
2023-01-07T17:07:05.506Z,19.92
2023-01-07T17:09:34.367Z,19.90
2023-01-07T17:12:00.969Z,19.88
2023-01-07T17:14:33.664Z,19.88
2023-01-07T17:17:00.593Z,19.84
2023-01-07T17:19:27.744Z,19.83
2023-01-07T17:21:54.634Z,19.80
2023-01-07T17:24:30.167Z,19.81
2023-01-07T17:26:57.360Z,19.77
2023-01-07T17:29:24.568Z,19.75
2023-01-07T17:31:51.046Z,19.74
2023-01-07T17:34:18.169Z,19.72
2023-01-07T17:36:44.667Z,19.71
2023-01-07T17:39:11.414Z,19.68
2023-01-07T17:41:56.666Z,19.69
2023-01-07T17:44:23.152Z,19.68
2023-01-07T17:46:49.570Z,19.66
2023-01-07T17:49:16.029Z,19.65
2023-01-07T17:51:43.391Z,19.62
2023-01-07T17:54:14.106Z,19.62
2023-01-07T17:56:40.656Z,19.60
2023-01-07T17:59:09.233Z,19.58
2023-01-07T18:01:35.823Z,19.58
2023-01-07T18:04:02.459Z,19.56
2023-01-07T18:06:31.059Z,19.56
2023-01-07T18:08:57.551Z,19.55
2023-01-07T18:11:43.307Z,19.54
2023-01-07T18:14:10.135Z,19.53
2023-01-07T18:16:36.602Z,19.52
2023-01-07T18:19:03.049Z,19.48
2023-01-07T18:21:29.559Z,19.48
2023-01-07T18:23:55.953Z,19.45
2023-01-07T18:26:22.430Z,19.47
2023-01-07T18:28:48.885Z,19.44
2023-01-07T18:31:15.587Z,19.44
2023-01-07T18:33:42.041Z,19.43
2023-01-07T18:36:09.474Z,19.43
2023-01-07T18:38:35.992Z,19.42
2023-01-07T18:41:04.768Z,19.41
2023-01-07T18:43:31.190Z,19.39
2023-01-07T18:45:57.658Z,19.39
2023-01-07T18:48:24.285Z,19.38
2023-01-07T18:50:50.749Z,19.36
2023-01-07T18:53:17.496Z,19.36
2023-01-07T18:55:44.343Z,19.34
2023-01-07T18:58:12.199Z,19.33
2023-01-07T19:00:38.711Z,19.32
2023-01-07T19:03:05.177Z,19.32
2023-01-07T19:05:31.782Z,19.30
2023-01-07T19:07:58.203Z,19.30
2023-01-07T19:10:24.952Z,19.30
2023-01-07T19:12:51.654Z,19.29
2023-01-07T19:15:18.228Z,19.29
2023-01-07T19:17:44.681Z,19.30
2023-01-07T19:20:12.469Z,19.29
2023-01-07T19:22:38.907Z,19.27
2023-01-07T19:25:05.603Z,19.26
2023-01-07T19:27:32.006Z,19.27
2023-01-07T19:29:58.548Z,19.25
2023-01-07T19:32:24.985Z,19.25
2023-01-07T19:34:52.975Z,19.24
2023-01-07T19:37:19.451Z,19.22
2023-01-07T19:39:45.925Z,19.23
2023-01-07T19:42:12.798Z,19.20
2023-01-07T19:44:41.134Z,19.20
2023-01-07T19:47:07.599Z,19.20
2023-01-07T19:49:34.040Z,19.20
2023-01-07T19:52:00.609Z,19.19
2023-01-07T19:54:27.002Z,19.18
2023-01-07T19:56:53.616Z,19.18
2023-01-07T19:59:20.043Z,19.17
2023-01-07T20:01:46.708Z,19.16
2023-01-07T20:04:13.215Z,19.16
2023-01-07T20:06:39.726Z,19.15
2023-01-07T20:09:10.782Z,19.15
2023-01-07T20:11:38.465Z,19.14
2023-01-07T20:14:04.885Z,19.13
2023-01-07T20:16:31.432Z,19.12
2023-01-07T20:18:57.921Z,19.12
2023-01-07T20:21:25.504Z,19.11
2023-01-07T20:23:51.928Z,19.12
2023-01-07T20:26:19.158Z,19.12
2023-01-07T20:28:45.705Z,19.10
2023-01-07T20:31:13.565Z,19.11
2023-01-07T20:33:40.266Z,19.08
2023-01-07T20:36:07.961Z,19.08
2023-01-07T20:38:36.577Z,19.08
2023-01-07T20:41:06.390Z,19.07
2023-01-07T20:43:33.130Z,19.06
2023-01-07T20:46:00.104Z,19.07
2023-01-07T20:48:26.825Z,19.08
2023-01-07T20:50:53.647Z,19.06
2023-01-07T20:53:20.140Z,19.06
2023-01-07T20:55:46.631Z,19.06
2023-01-07T20:58:13.173Z,19.05
2023-01-07T21:00:41.048Z,19.05
2023-01-07T21:03:08.326Z,19.02
2023-01-07T21:05:34.822Z,19.05
2023-01-07T21:08:01.247Z,19.06
2023-01-07T21:10:27.692Z,19.05
2023-01-07T21:12:54.094Z,19.04
2023-01-07T21:15:20.594Z,19.03
2023-01-07T21:17:47.055Z,19.05
2023-01-07T21:20:14.124Z,19.07
2023-01-07T21:22:40.857Z,19.06
2023-01-07T21:25:10.157Z,19.07
2023-01-07T21:27:39.681Z,19.06
2023-01-07T21:30:06.494Z,19.06
2023-01-07T21:32:33.539Z,19.06
2023-01-07T21:35:00.001Z,19.05
2023-01-07T21:37:28.452Z,19.03
2023-01-07T21:39:55.763Z,19.02
2023-01-07T21:42:22.143Z,19.05
2023-01-07T21:44:48.636Z,19.05
2023-01-07T21:47:15.055Z,19.03
2023-01-07T21:49:41.740Z,19.03
2023-01-07T21:52:08.125Z,19.02
2023-01-07T21:54:34.675Z,19.02
2023-01-07T21:57:01.066Z,19.06
2023-01-07T21:59:29.931Z,19.06
2023-01-07T22:01:56.525Z,19.08
2023-01-07T22:04:23.101Z,19.09
2023-01-07T22:06:49.644Z,19.09
2023-01-07T22:09:16.193Z,19.07
2023-01-07T22:11:43.025Z,19.06
2023-01-07T22:14:13.234Z,19.05
2023-01-07T22:16:39.784Z,19.05
2023-01-07T22:19:06.281Z,19.06
2023-01-07T22:21:32.723Z,19.02
2023-01-07T22:23:59.266Z,19.01
2023-01-07T22:26:25.707Z,19.02
2023-01-07T22:28:56.610Z,19.03
2023-01-07T22:31:24.288Z,19.01
2023-01-07T22:33:50.847Z,19.06
2023-01-07T22:36:18.664Z,19.04
2023-01-07T22:38:45.085Z,19.03
2023-01-07T22:41:11.584Z,19.02
2023-01-07T22:43:40.608Z,19.01
2023-01-07T22:46:11.753Z,19.03
2023-01-07T22:48:38.272Z,19.03
2023-01-07T22:51:15.233Z,19.03
2023-01-07T22:53:41.750Z,19.01
2023-01-07T22:56:08.280Z,19.01
2023-01-07T22:58:34.717Z,19.01
2023-01-07T23:01:04.213Z,18.99
2023-01-07T23:03:30.761Z,18.97
2023-01-07T23:05:57.243Z,19.01
2023-01-07T23:08:23.750Z,18.98
2023-01-07T23:10:50.141Z,18.99
2023-01-07T23:13:16.528Z,19.00
2023-01-07T23:15:42.965Z,18.97
2023-01-07T23:18:09.829Z,18.98
2023-01-07T23:20:39.881Z,18.95
2023-01-07T23:23:06.305Z,18.93
2023-01-07T23:25:32.795Z,18.93
2023-01-07T23:27:59.246Z,18.91
2023-01-07T23:30:25.739Z,18.89
2023-01-07T23:32:52.161Z,18.89
2023-01-07T23:35:18.589Z,18.88
2023-01-07T23:37:44.982Z,18.88
2023-01-07T23:40:11.675Z,18.88
2023-01-07T23:42:38.226Z,18.89
2023-01-07T23:45:07.259Z,18.88
2023-01-07T23:47:35.930Z,18.87
2023-01-07T23:50:02.415Z,18.88
2023-01-07T23:52:29.146Z,18.87
2023-01-07T23:54:56.536Z,18.86
2023-01-07T23:57:23.098Z,18.88
2023-01-07T23:59:49.484Z,18.85
